createdAt,value
2022-12-08T00:00:05.162Z,84.29
2022-12-08T00:02:35.260Z,84.15
2022-12-08T00:05:16.352Z,83.71
2022-12-08T00:07:57.849Z,84.34
2022-12-08T00:10:47.890Z,84.23
2022-12-08T00:13:03.252Z,84.69
2022-12-08T00:15:25.848Z,85.11
2022-12-08T00:17:48.397Z,85.85
2022-12-08T00:20:11.318Z,86.26
2022-12-08T00:22:33.966Z,86.58
2022-12-08T00:24:56.543Z,87.07
2022-12-08T00:27:19.205Z,87.47
2022-12-08T00:29:44.620Z,87.17
2022-12-08T00:32:07.375Z,86.46
2022-12-08T00:34:31.461Z,86.26
2022-12-08T00:36:54.036Z,86.72
2022-12-08T00:39:17.866Z,86.75
2022-12-08T00:41:59.369Z,86.42
2022-12-08T00:44:22.195Z,85.73
2022-12-08T00:46:45.989Z,86.04
2022-12-08T00:49:08.669Z,86.90
2022-12-08T00:51:32.016Z,87.36
2022-12-08T00:53:54.619Z,87.43
2022-12-08T00:56:17.257Z,87.59
2022-12-08T00:58:39.912Z,88.09
2022-12-08T01:01:02.548Z,88.31
2022-12-08T01:03:25.755Z,88.29
2022-12-08T01:05:48.478Z,87.84
2022-12-08T01:08:11.260Z,87.86
2022-12-08T01:10:37.769Z,88.42
2022-12-08T01:13:00.359Z,88.36
2022-12-08T01:15:22.971Z,88.67
2022-12-08T01:17:45.671Z,88.51
2022-12-08T01:20:08.903Z,87.71
2022-12-08T01:22:33.397Z,87.74
2022-12-08T01:24:55.962Z,88.10
2022-12-08T01:27:18.600Z,88.70
2022-12-08T01:29:41.127Z,88.35
2022-12-08T01:32:03.712Z,88.20
2022-12-08T01:34:26.276Z,88.31
2022-12-08T01:36:48.823Z,88.36
2022-12-08T01:39:16.031Z,88.30
2022-12-08T01:41:39.416Z,88.26
2022-12-08T01:44:13.746Z,88.37
2022-12-08T01:46:38.965Z,88.43
2022-12-08T01:49:12.773Z,88.45
2022-12-08T01:51:42.172Z,88.73
2022-12-08T01:54:07.194Z,88.58
2022-12-08T01:56:52.339Z,88.29
2022-12-08T01:59:15.378Z,88.15
2022-12-08T02:01:38.649Z,88.41
2022-12-08T02:04:04.255Z,88.20
2022-12-08T02:06:30.483Z,87.94
2022-12-08T02:08:55.295Z,88.38
2022-12-08T02:11:18.170Z,88.65
2022-12-08T02:13:43.244Z,88.57
2022-12-08T02:16:24.221Z,88.24
2022-12-08T02:19:29.882Z,88.00
2022-12-08T02:21:50.289Z,88.02
2022-12-08T02:24:24.788Z,87.69
2022-12-08T02:26:50.115Z,87.30
2022-12-08T02:29:39.874Z,87.54
2022-12-08T02:32:21.021Z,87.85
2022-12-08T02:35:02.487Z,88.05
2022-12-08T02:37:32.648Z,87.33
2022-12-08T02:40:26.114Z,87.25
2022-12-08T02:42:55.326Z,87.27
2022-12-08T02:45:29.216Z,87.28
2022-12-08T02:47:52.759Z,87.75
2022-12-08T02:50:15.809Z,88.87
2022-12-08T02:52:43.746Z,88.63
2022-12-08T02:55:13.421Z,88.27
2022-12-08T02:58:00.236Z,88.41
2022-12-08T03:00:25.420Z,87.93
2022-12-08T03:03:07.719Z,87.83
2022-12-08T03:06:07.052Z,87.34
2022-12-08T03:09:01.933Z,87.19
2022-12-08T03:11:27.820Z,87.06
2022-12-08T03:13:58.068Z,86.86
2022-12-08T03:16:25.744Z,86.43
2022-12-08T03:18:54.489Z,86.37
2022-12-08T03:21:20.310Z,86.18
2022-12-08T03:23:46.429Z,85.65
2022-12-08T03:26:14.641Z,85.44
2022-12-08T03:28:38.312Z,85.41
2022-12-08T03:31:07.254Z,85.94
2022-12-08T03:33:35.153Z,85.67
2022-12-08T03:36:01.769Z,85.30
2022-12-08T03:38:24.557Z,85.10
2022-12-08T03:41:07.202Z,85.03
2022-12-08T03:43:29.904Z,85.19
2022-12-08T03:45:52.434Z,85.06
2022-12-08T03:48:15.053Z,85.02
2022-12-08T03:50:37.745Z,84.61
2022-12-08T03:53:00.311Z,85.10
2022-12-08T03:55:22.852Z,85.16
2022-12-08T03:57:45.419Z,84.78
2022-12-08T04:00:09.849Z,85.94
2022-12-08T04:02:32.507Z,86.36
2022-12-08T04:04:55.104Z,86.75
2022-12-08T04:07:17.784Z,86.94
2022-12-08T04:09:41.712Z,87.67
2022-12-08T04:12:08.055Z,87.73
2022-12-08T04:14:30.672Z,87.43
2022-12-08T04:16:53.326Z,87.53
2022-12-08T04:19:16.928Z,87.27
2022-12-08T04:21:39.517Z,87.20
2022-12-08T04:24:02.614Z,87.95
2022-12-08T04:26:25.425Z,88.12
2022-12-08T04:28:48.485Z,88.45
2022-12-08T04:31:11.289Z,88.71
2022-12-08T04:33:35.282Z,88.96
2022-12-08T04:35:58.205Z,89.34
2022-12-08T04:38:21.143Z,89.44
2022-12-08T04:40:43.807Z,89.30
2022-12-08T04:43:06.601Z,89.25
2022-12-08T04:45:29.176Z,89.27
2022-12-08T04:47:51.813Z,88.77
2022-12-08T04:50:14.562Z,88.47
2022-12-08T04:52:37.337Z,88.57
2022-12-08T04:54:59.970Z,88.79
2022-12-08T04:57:22.593Z,88.48
2022-12-08T04:59:46.284Z,88.77
2022-12-08T05:02:09.241Z,88.88
2022-12-08T05:04:32.049Z,88.79
2022-12-08T05:06:54.632Z,89.03
2022-12-08T05:09:17.370Z,88.92
2022-12-08T05:11:46.927Z,89.10
2022-12-08T05:14:13.585Z,88.86
2022-12-08T05:16:37.471Z,88.86
2022-12-08T05:19:00.113Z,89.16
2022-12-08T05:21:22.796Z,89.27
2022-12-08T05:23:45.479Z,89.36
2022-12-08T05:26:08.064Z,89.08
2022-12-08T05:28:45.852Z,88.77
2022-12-08T05:31:08.587Z,88.55
2022-12-08T05:33:31.125Z,88.74
2022-12-08T05:35:53.776Z,88.60
2022-12-08T05:38:16.291Z,89.05
2022-12-08T05:40:40.125Z,89.11
2022-12-08T05:43:02.580Z,89.04
2022-12-08T05:45:25.314Z,88.79
2022-12-08T05:47:47.818Z,88.99
2022-12-08T05:50:10.755Z,89.02
2022-12-08T05:52:33.421Z,88.88
2022-12-08T05:54:56.036Z,88.51
2022-12-08T05:57:18.565Z,88.54
2022-12-08T05:59:41.410Z,88.63
2022-12-08T06:02:04.047Z,88.73
2022-12-08T06:04:26.672Z,88.54
2022-12-08T06:06:49.510Z,88.79
2022-12-08T06:09:13.109Z,88.68
2022-12-08T06:11:36.078Z,87.95
2022-12-08T06:13:59.400Z,87.67
2022-12-08T06:16:22.897Z,87.40
2022-12-08T06:18:46.137Z,87.31
2022-12-08T06:21:11.497Z,87.59
2022-12-08T06:23:34.633Z,87.69
2022-12-08T06:26:05.910Z,87.55
2022-12-08T06:28:29.889Z,87.24
2022-12-08T06:30:52.504Z,87.43
2022-12-08T06:33:15.194Z,87.75
2022-12-08T06:35:37.854Z,87.60
2022-12-08T06:38:00.693Z,87.90
2022-12-08T06:40:23.547Z,87.88
2022-12-08T06:42:47.326Z,87.17
2022-12-08T06:45:11.582Z,86.89
2022-12-08T06:47:35.124Z,86.87
2022-12-08T06:49:58.421Z,86.78
2022-12-08T06:52:22.555Z,86.70
2022-12-08T06:54:45.426Z,87.37
2022-12-08T06:57:08.253Z,87.45
2022-12-08T06:59:31.099Z,86.93
2022-12-08T07:01:54.146Z,86.57
2022-12-08T07:04:18.754Z,86.73
2022-12-08T07:06:41.821Z,86.76
2022-12-08T07:09:04.616Z,86.90
2022-12-08T07:11:27.276Z,86.72
2022-12-08T07:13:51.249Z,86.49
2022-12-08T07:16:14.242Z,86.03
2022-12-08T07:18:39.116Z,85.78
2022-12-08T07:21:11.106Z,86.11
2022-12-08T07:23:34.293Z,85.98
2022-12-08T07:26:00.909Z,85.80
2022-12-08T07:28:24.263Z,85.51
2022-12-08T07:30:46.838Z,85.32
2022-12-08T07:33:09.737Z,85.63
2022-12-08T07:35:34.725Z,85.41
2022-12-08T07:37:57.954Z,84.48
2022-12-08T07:40:20.887Z,84.27
2022-12-08T07:42:43.971Z,84.43
2022-12-08T07:45:08.564Z,85.28
2022-12-08T07:47:32.546Z,85.10
2022-12-08T07:49:55.734Z,85.03
2022-12-08T07:52:18.689Z,84.75
2022-12-08T07:54:41.743Z,84.95
2022-12-08T07:57:06.173Z,84.89
2022-12-08T07:59:29.232Z,85.24
2022-12-08T08:02:13.204Z,84.99
2022-12-08T08:04:35.611Z,85.02
2022-12-08T08:06:58.523Z,83.74
2022-12-08T08:09:21.556Z,83.09
2022-12-08T08:12:01.102Z,83.16
2022-12-08T08:14:27.581Z,83.77
2022-12-08T08:16:50.480Z,83.35
2022-12-08T08:19:13.535Z,83.34
2022-12-08T08:21:45.677Z,83.66
2022-12-08T08:24:09.168Z,83.95
2022-12-08T08:26:32.311Z,83.71
2022-12-08T08:28:55.589Z,83.77
2022-12-08T08:31:18.536Z,82.59
2022-12-08T08:33:41.381Z,81.36
2022-12-08T08:36:08.395Z,80.83
2022-12-08T08:38:31.796Z,78.89
2022-12-08T08:40:54.448Z,79.52
2022-12-08T08:43:36.027Z,78.99
2022-12-08T08:46:01.492Z,78.00
2022-12-08T08:48:25.697Z,78.89
2022-12-08T08:50:49.948Z,80.01
2022-12-08T08:53:13.152Z,79.87
2022-12-08T08:55:38.802Z,79.96
2022-12-08T08:58:01.779Z,79.80
2022-12-08T09:00:24.609Z,79.94
2022-12-08T09:02:47.490Z,79.58
2022-12-08T09:05:10.212Z,80.74
2022-12-08T09:07:32.954Z,81.72
2022-12-08T09:10:01.277Z,80.90
2022-12-08T09:12:25.254Z,80.12
2022-12-08T09:14:48.010Z,79.58
2022-12-08T09:17:10.750Z,77.79
2022-12-08T09:19:33.703Z,76.73
2022-12-08T09:21:56.231Z,77.48
2022-12-08T09:24:18.945Z,76.88
2022-12-08T09:26:43.877Z,76.89
2022-12-08T09:29:07.633Z,76.30
2022-12-08T09:31:30.340Z,75.80
2022-12-08T09:33:53.217Z,76.19
2022-12-08T09:36:15.824Z,76.02
2022-12-08T09:38:39.661Z,75.64
2022-12-08T09:41:04.506Z,75.41
2022-12-08T09:43:52.781Z,76.06
2022-12-08T09:46:17.745Z,75.49
2022-12-08T09:48:46.240Z,75.30
2022-12-08T09:51:56.146Z,75.77
2022-12-08T09:54:25.868Z,75.98
2022-12-08T09:56:51.625Z,76.25
2022-12-08T09:59:29.293Z,76.76
2022-12-08T10:01:52.796Z,76.93
2022-12-08T10:04:45.119Z,76.76
2022-12-08T10:07:17.119Z,75.89
2022-12-08T10:10:05.893Z,76.65
2022-12-08T10:12:51.831Z,77.22
2022-12-08T10:15:42.458Z,77.16
2022-12-08T10:18:14.330Z,76.19
2022-12-08T10:20:40.971Z,76.33
2022-12-08T10:23:12.845Z,76.98
2022-12-08T10:25:41.310Z,76.83
2022-12-08T10:28:04.001Z,77.23
2022-12-08T10:30:26.899Z,76.51
2022-12-08T10:32:51.778Z,77.98
2022-12-08T10:35:20.129Z,78.00
2022-12-08T10:37:57.114Z,78.13
2022-12-08T10:40:20.024Z,77.90
2022-12-08T10:42:52.377Z,77.60
2022-12-08T10:45:26.837Z,78.35
2022-12-08T10:48:09.917Z,77.89
2022-12-08T10:50:41.566Z,77.55
2022-12-08T10:53:44.713Z,76.93
2022-12-08T10:56:15.566Z,77.22
2022-12-08T10:58:41.151Z,76.85
2022-12-08T11:01:11.343Z,76.79
2022-12-08T11:03:50.009Z,77.37
2022-12-08T11:06:32.730Z,77.73
2022-12-08T11:08:58.333Z,77.45
2022-12-08T11:11:29.095Z,77.92
2022-12-08T11:13:52.147Z,78.48
2022-12-08T11:16:17.773Z,78.26
2022-12-08T11:18:55.241Z,77.97
2022-12-08T11:21:19.857Z,77.59
2022-12-08T11:23:46.763Z,76.89
2022-12-08T11:26:26.462Z,76.40
2022-12-08T11:28:49.627Z,75.31
2022-12-08T11:31:29.237Z,75.75
2022-12-08T11:33:53.070Z,76.08
2022-12-08T11:36:16.259Z,75.86
2022-12-08T11:38:46.708Z,75.46
2022-12-08T11:41:16.367Z,75.03
2022-12-08T11:44:10.449Z,75.48
2022-12-08T11:46:57.012Z,75.44
2022-12-08T11:49:20.727Z,75.44
2022-12-08T11:52:02.808Z,74.97
2022-12-08T11:54:28.273Z,74.60
2022-12-08T11:56:57.560Z,74.10
2022-12-08T11:59:32.166Z,74.12
2022-12-08T12:01:56.802Z,74.13
2022-12-08T12:04:43.406Z,74.94
2022-12-08T12:07:12.523Z,75.02
2022-12-08T12:10:03.547Z,74.38
2022-12-08T12:13:00.039Z,74.39
2022-12-08T12:15:37.789Z,74.59
2022-12-08T12:18:29.039Z,74.04
2022-12-08T12:21:13.141Z,73.58
2022-12-08T12:23:43.667Z,74.50
2022-12-08T12:26:09.980Z,74.18
2022-12-08T12:28:49.797Z,74.13
2022-12-08T12:31:15.971Z,74.50
2022-12-08T12:33:39.005Z,74.03
2022-12-08T12:36:06.277Z,74.35
2022-12-08T12:38:55.404Z,74.48
2022-12-08T12:41:25.598Z,74.62
2022-12-08T12:44:13.518Z,75.14
2022-12-08T12:46:36.329Z,75.36
2022-12-08T12:49:37.507Z,75.36
2022-12-08T12:52:00.384Z,74.87
2022-12-08T12:54:24.897Z,75.35
2022-12-08T12:57:14.750Z,75.28
2022-12-08T12:59:54.897Z,75.42
2022-12-08T13:02:26.550Z,75.30
2022-12-08T13:04:58.112Z,75.70
2022-12-08T13:07:33.257Z,75.63
2022-12-08T13:10:26.930Z,76.13
2022-12-08T13:13:17.898Z,76.50
2022-12-08T13:15:47.036Z,76.80
2022-12-08T13:18:25.056Z,76.57
2022-12-08T13:20:52.362Z,77.03
2022-12-08T13:23:23.902Z,76.86
2022-12-08T13:25:48.628Z,77.01
2022-12-08T13:28:29.049Z,77.14
2022-12-08T13:30:57.648Z,77.35
2022-12-08T13:33:38.067Z,77.05
2022-12-08T13:36:25.980Z,77.43
2022-12-08T13:38:56.226Z,77.74
2022-12-08T13:41:34.659Z,77.87
2022-12-08T13:58:44.270Z,78.39
2022-12-08T14:01:21.045Z,77.54
2022-12-08T14:04:12.829Z,77.35
2022-12-08T14:06:37.352Z,77.16
2022-12-08T14:09:08.670Z,77.15
2022-12-08T14:11:41.359Z,77.88
2022-12-08T14:14:08.658Z,77.77
2022-12-08T14:16:43.213Z,77.46
2022-12-08T14:19:19.207Z,77.62
2022-12-08T14:21:41.924Z,77.84
2022-12-08T14:24:04.798Z,77.90
2022-12-08T14:26:33.388Z,77.53
2022-12-08T14:28:56.080Z,77.62
2022-12-08T14:31:18.957Z,77.68
2022-12-08T14:33:41.872Z,77.42
2022-12-08T14:36:04.729Z,77.31
2022-12-08T14:38:27.578Z,77.28
2022-12-08T14:41:05.779Z,77.52
2022-12-08T14:43:30.493Z,77.77
2022-12-08T14:46:00.028Z,77.91
2022-12-08T14:48:27.720Z,78.40
2022-12-08T14:51:15.388Z,78.59
2022-12-08T14:54:05.430Z,78.42
2022-12-08T14:56:38.444Z,78.74
2022-12-08T14:59:19.648Z,78.98
2022-12-08T15:01:43.801Z,79.16
2022-12-08T15:04:12.178Z,79.80
2022-12-08T15:06:35.919Z,79.76
2022-12-08T15:08:59.754Z,79.87
2022-12-08T15:11:22.345Z,79.49
2022-12-08T15:13:46.759Z,79.96
2022-12-08T15:16:26.288Z,80.52
2022-12-08T15:19:04.537Z,80.53
2022-12-08T15:21:30.517Z,80.31
2022-12-08T15:23:53.057Z,80.62
2022-12-08T15:26:24.587Z,80.75
2022-12-08T15:28:47.591Z,80.76
2022-12-08T15:31:11.411Z,80.71
2022-12-08T15:33:34.102Z,80.90
2022-12-08T15:35:56.834Z,81.71
2022-12-08T15:38:23.879Z,81.06
2022-12-08T15:40:46.748Z,80.82
2022-12-08T15:43:11.249Z,81.57
2022-12-08T15:45:33.782Z,81.80
2022-12-08T15:47:56.541Z,82.43
2022-12-08T15:50:21.342Z,83.05
2022-12-08T15:52:44.320Z,82.15
2022-12-08T15:55:07.164Z,82.43
2022-12-08T16:00:51.911Z,83.88
2022-12-08T16:03:42.529Z,83.48
2022-12-08T16:06:56.992Z,82.98
2022-12-08T16:08:56.214Z,83.28
2022-12-08T16:12:05.994Z,83.13
2022-12-08T16:17:19.347Z,83.00
2022-12-08T16:19:42.129Z,83.53
2022-12-08T16:22:45.101Z,83.42
2022-12-08T16:24:47.591Z,83.77
2022-12-08T16:27:59.202Z,83.20
2022-12-08T16:30:06.236Z,83.24
2022-12-08T16:32:29.107Z,83.48
2022-12-08T16:34:52.295Z,82.90
2022-12-08T16:37:19.794Z,83.10
2022-12-08T16:39:45.899Z,83.25
2022-12-08T16:42:37.950Z,82.89
2022-12-08T16:45:05.046Z,82.70
2022-12-08T16:47:28.050Z,82.47
2022-12-08T16:49:50.855Z,82.49
2022-12-08T16:52:13.575Z,82.63
2022-12-08T16:54:36.231Z,82.79
2022-12-08T16:56:58.949Z,82.67
2022-12-08T16:59:21.759Z,83.00
2022-12-08T17:01:44.387Z,82.67
2022-12-08T17:04:30.344Z,82.30
2022-12-08T17:06:52.944Z,82.20
2022-12-08T17:09:15.736Z,82.15
2022-12-08T17:11:42.962Z,81.55
2022-12-08T17:14:07.901Z,81.49
2022-12-08T17:16:30.581Z,81.90
2022-12-08T17:18:54.131Z,81.82
2022-12-08T17:21:18.222Z,81.91
2022-12-08T17:23:41.595Z,82.31
2022-12-08T17:26:04.869Z,81.71
2022-12-08T17:28:58.227Z,82.12
2022-12-08T17:31:12.875Z,82.52
2022-12-08T17:33:36.953Z,83.02
2022-12-08T17:35:59.833Z,83.27
2022-12-08T17:38:23.225Z,83.18
2022-12-08T17:40:46.178Z,83.64
2022-12-08T17:43:08.781Z,83.10
2022-12-08T17:45:31.577Z,83.02
2022-12-08T17:47:54.345Z,83.52
2022-12-08T17:50:17.116Z,83.96
2022-12-08T17:52:39.934Z,84.00
2022-12-08T17:55:03.247Z,84.65
2022-12-08T17:57:26.093Z,84.52
2022-12-08T17:59:49.150Z,84.81
2022-12-08T18:02:12.213Z,84.72
2022-12-08T18:04:34.827Z,84.54
2022-12-08T18:07:00.270Z,84.23
2022-12-08T18:09:23.079Z,84.04
2022-12-08T18:11:46.419Z,83.53
2022-12-08T18:14:10.270Z,83.16
2022-12-08T18:16:33.176Z,82.98
2022-12-08T18:18:55.997Z,82.35
2022-12-08T18:21:23.308Z,81.84
2022-12-08T18:23:46.962Z,82.24
2022-12-08T18:26:11.954Z,82.27
2022-12-08T18:28:35.607Z,82.30
2022-12-08T18:30:58.811Z,82.35
2022-12-08T18:33:22.324Z,82.37
2022-12-08T18:35:45.039Z,82.20
2022-12-08T18:38:07.754Z,82.30
2022-12-08T18:40:30.957Z,82.31
2022-12-08T18:42:53.805Z,81.81
2022-12-08T18:45:22.530Z,81.64
2022-12-08T18:47:45.593Z,81.85
2022-12-08T18:50:11.114Z,81.41
2022-12-08T18:52:34.428Z,81.60
2022-12-08T18:55:06.340Z,81.72
2022-12-08T18:57:30.621Z,81.97
2022-12-08T18:59:54.687Z,81.99
2022-12-08T19:02:18.511Z,81.96
2022-12-08T19:04:44.659Z,82.26
2022-12-08T19:07:07.814Z,82.09
2022-12-08T19:09:31.017Z,82.08
2022-12-08T19:11:55.090Z,82.24
2022-12-08T19:14:21.372Z,82.13
2022-12-08T19:16:47.088Z,82.15
2022-12-08T19:19:09.952Z,82.23
2022-12-08T19:21:33.279Z,82.00
2022-12-08T19:23:58.572Z,82.21
2022-12-08T19:26:21.993Z,81.66
2022-12-08T19:28:44.840Z,81.74
2022-12-08T19:31:08.742Z,82.09
2022-12-08T19:33:31.882Z,82.24
2022-12-08T19:35:54.846Z,82.46
2022-12-08T19:38:17.786Z,81.90
2022-12-08T19:41:03.462Z,82.29
2022-12-08T19:43:45.037Z,82.41
2022-12-08T19:46:08.677Z,82.53
2022-12-08T19:48:31.831Z,82.59
2022-12-08T19:50:54.650Z,82.51
2022-12-08T19:53:17.521Z,83.01
2022-12-08T19:55:40.929Z,82.88
2022-12-08T19:58:06.999Z,83.20
2022-12-08T20:00:32.140Z,83.44
2022-12-08T20:02:56.945Z,83.81
2022-12-08T20:05:20.034Z,84.19
2022-12-08T20:07:42.887Z,84.44
2022-12-08T20:10:09.261Z,84.90
2022-12-08T20:12:32.191Z,84.88
2022-12-08T20:14:55.027Z,84.70
2022-12-08T20:17:17.640Z,84.33
2022-12-08T20:19:41.341Z,84.66
2022-12-08T20:22:04.425Z,84.48
2022-12-08T20:24:27.316Z,83.87
2022-12-08T20:26:50.131Z,84.47
2022-12-08T20:29:17.016Z,84.11
2022-12-08T20:32:21.736Z,84.07
2022-12-08T20:34:44.830Z,83.81
2022-12-08T20:37:07.667Z,84.01
2022-12-08T20:39:31.535Z,83.73
2022-12-08T20:41:56.053Z,83.80
2022-12-08T20:44:18.809Z,83.93
2022-12-08T20:46:46.249Z,83.79
2022-12-08T20:49:13.159Z,83.50
2022-12-08T20:51:36.276Z,83.58
2022-12-08T20:53:59.565Z,83.66
2022-12-08T20:56:23.915Z,83.70
2022-12-08T20:58:47.105Z,83.85
2022-12-08T21:01:12.413Z,83.97
2022-12-08T21:03:36.563Z,84.38
2022-12-08T21:05:59.372Z,84.44
2022-12-08T21:08:25.387Z,84.37
2022-12-08T21:10:54.451Z,84.53
2022-12-08T21:13:17.333Z,84.91
2022-12-08T21:15:45.482Z,84.54
2022-12-08T21:18:08.377Z,84.77
2022-12-08T21:20:31.525Z,84.91
2022-12-08T21:22:54.945Z,85.42
2022-12-08T21:25:17.828Z,85.55
2022-12-08T21:27:40.737Z,85.91
2022-12-08T21:30:04.104Z,85.68
2022-12-08T21:32:30.313Z,85.86
2022-12-08T21:34:53.637Z,85.92
2022-12-08T21:37:17.755Z,85.67
2022-12-08T21:39:40.470Z,85.50
2022-12-08T21:42:22.930Z,85.70
2022-12-08T21:44:45.896Z,85.75
2022-12-08T21:47:08.531Z,85.82
2022-12-08T21:49:31.447Z,85.85
2022-12-08T21:51:54.111Z,85.89
2022-12-08T21:54:19.065Z,86.37
2022-12-08T21:56:44.817Z,86.28
2022-12-08T21:59:07.998Z,86.12
2022-12-08T22:01:30.717Z,86.02
2022-12-08T22:03:53.773Z,86.03
2022-12-08T22:06:16.447Z,86.02
2022-12-08T22:08:40.215Z,85.79
2022-12-08T22:11:03.234Z,86.12
2022-12-08T22:13:25.976Z,86.31
2022-12-08T22:16:02.681Z,85.90
2022-12-08T22:18:25.841Z,86.10
2022-12-08T22:20:48.653Z,86.24
2022-12-08T22:23:11.436Z,85.82
2022-12-08T22:25:34.131Z,85.63
2022-12-08T22:27:57.049Z,85.66
2022-12-08T22:30:19.906Z,85.65
2022-12-08T22:32:42.655Z,86.30
2022-12-08T22:35:05.851Z,86.37
2022-12-08T22:37:28.633Z,86.59
2022-12-08T22:39:51.294Z,86.63
2022-12-08T22:42:15.082Z,86.69
2022-12-08T22:44:37.582Z,86.88
2022-12-08T22:47:00.243Z,87.03
2022-12-08T22:49:26.057Z,86.88
2022-12-08T22:51:48.923Z,86.94
2022-12-08T22:54:12.208Z,87.13
2022-12-08T22:56:34.922Z,86.86
2022-12-08T22:58:58.168Z,86.91
2022-12-08T23:01:22.136Z,87.03
2022-12-08T23:03:44.819Z,86.92
2022-12-08T23:06:12.998Z,87.11
2022-12-08T23:08:35.905Z,87.06
2022-12-08T23:10:58.713Z,87.17
2022-12-08T23:13:22.082Z,87.12
2022-12-08T23:15:44.927Z,86.97
2022-12-08T23:18:08.006Z,86.38
2022-12-08T23:20:30.950Z,85.59
2022-12-08T23:22:54.610Z,85.75
2022-12-08T23:25:18.516Z,85.66
2022-12-08T23:27:41.225Z,85.81
2022-12-08T23:30:07.288Z,86.00
2022-12-08T23:32:30.270Z,85.10
2022-12-08T23:34:53.036Z,84.95
2022-12-08T23:37:16.016Z,86.00
2022-12-08T23:39:38.985Z,85.83
2022-12-08T23:42:01.537Z,85.72
2022-12-08T23:44:24.392Z,85.62
2022-12-08T23:46:46.985Z,85.92
2022-12-08T23:49:11.098Z,86.36
2022-12-08T23:51:33.614Z,86.43
2022-12-08T23:53:56.265Z,87.02
2022-12-08T23:56:19.291Z,87.23
2022-12-08T23:58:43.623Z,87.17
